Aérodrome :
LOGIN :

S'inscrire | Disclaimer

   EN    FR    IT 

 










Légende :    VFR   VFR Marginal   IFR   IFR Intensif   IFR Très Intensif
Visi : 
Plafond : 
>= 8 km
>= 3000ft
5 à 8 km
1000 à 3000 ft
1500m à 5 km
500 à 1000 ft
800 à 1500m
200 à 500 ft
< 800m
< 200 ft
Symboles :   Orages  Brouillard  Fortes neiges  Fortes précipitations  Vent > 20 kt
SIGMETs :   Divers  Orages  Givrage  Turbulence  Onde Orograph.  Cendres Volcan.







- Altitude de l'aérodrome : 359 ft
- Code IATA : BVA
- Voir les cartes d'approche


LFOB - Beauvais

DERNIER METAR :
  • 142100Z AUTO 28004KT CAVOK 16/13 Q1020 TEMPO BKN011

METARs EXPIRÉS :
  • 142030Z AUTO 27004KT CAVOK 16/13 Q1020 TEMPO BKN011
  • 142000Z AUTO 28006KT CAVOK 17/13 Q1020 NOSIG
  • 141930Z AUTO 28005KT CAVOK 18/13 Q1020 NOSIG
  • 141900Z AUTO 29005KT CAVOK 19/13 Q1019 NOSIG
  • 141830Z AUTO 30008KT 9999 FEW045 20/12 Q1019 NOSIG
  • 141800Z AUTO 30010KT 9999 FEW039 21/13 Q1019 NOSIG

TAF TAF LFOB
Valide du 14 à 18h jusqu'au 15 à 18h UTC


141700Z 1418/1518 32010KT 9999 SCT045
BECMG 1419/1421 26007KT
TEMPO 1422/1507 BKN011
ATIS : +33 3 44 11 49 28
Pas de NOTAMs connus pour ce terrain.



MET'MAP, la Météo Aéronautique d'un coup d'oeil ! - Copyright ORBIFLY Décembre 2007 - Disclaimer

ORBIFLY MET'MAP TEAM :

Programmation & Développement : Alexandra Zaïnal
Conception & Développement : Baudouin d'Aumeries
Co-Programmation & Développement : Marc-Olivier Méhu
Soutien technique & logistique : Manuel Goepfert

Contact : metmap@orbifly.com




SOURCES & CREDITS :

   NOAA